Terminal Aerodrome Forecast
Issued by NWS Topeka, KS

Home | Current Version | Previous Version | Graphics & Text | Print | Product List | Glossary On
Versions: 1 2 3 4 5 6 7 8 9 10 11 12 13 14 15 16 17 18 19 20 21 22 23 24
000
FTUS43 KTOP 242200 AAD
TAFTOP
TAF AMD
KTOP 242245Z 2423/2518 32009KT P6SM SCT013 OVC028
      TEMPO 2423/2424 6SM BR OVC013
     FM250100 VRB03KT P6SM FEW025 SCT150
     FM250700 00000KT 3SM BR FEW001
     FM251200 17005KT 6SM BR BKN100=

USA.gov is the U.S. government's official web portal to all federal, state and local government web resources and services.